sensor_id;sensor_type;location;lat;lon;timestamp;temperature;humidity
30473;DHT22;17263;48.160;11.452;2023-02-04T00:01:10;5.20;99.90
30473;DHT22;17263;48.160;11.452;2023-02-04T00:03:36;5.20;99.90
30473;DHT22;17263;48.160;11.452;2023-02-04T00:06:02;5.20;99.90
30473;DHT22;17263;48.160;11.452;2023-02-04T00:08:28;5.20;99.90
30473;DHT22;17263;48.160;11.452;2023-02-04T00:10:54;5.20;99.90
30473;DHT22;17263;48.160;11.452;2023-02-04T00:13:20;5.20;99.90
30473;DHT22;17263;48.160;11.452;2023-02-04T00:15:46;5.20;99.90
30473;DHT22;17263;48.160;11.452;2023-02-04T00:18:12;5.20;99.90
30473;DHT22;17263;48.160;11.452;2023-02-04T00:20:39;5.20;99.90
30473;DHT22;17263;48.160;11.452;2023-02-04T00:23:05;5.20;99.90
30473;DHT22;17263;48.160;11.452;2023-02-04T00:25:31;5.20;99.90
30473;DHT22;17263;48.160;11.452;2023-02-04T00:27:57;5.20;99.90
30473;DHT22;17263;48.160;11.452;2023-02-04T00:30:23;5.20;99.90
30473;DHT22;17263;48.160;11.452;2023-02-04T00:32:49;5.20;99.90
30473;DHT22;17263;48.160;11.452;2023-02-04T00:35:20;5.10;99.90
30473;DHT22;17263;48.160;11.452;2023-02-04T00:37:46;5.10;99.90
30473;DHT22;17263;48.160;11.452;2023-02-04T00:40:12;5.20;99.90
30473;DHT22;17263;48.160;11.452;2023-02-04T00:42:38;5.20;99.90
30473;DHT22;17263;48.160;11.452;2023-02-04T00:45:04;5.30;99.90
30473;DHT22;17263;48.160;11.452;2023-02-04T00:47:30;5.20;99.90
30473;DHT22;17263;48.160;11.452;2023-02-04T00:49:56;5.20;99.90
30473;DHT22;17263;48.160;11.452;2023-02-04T00:52:22;5.20;99.90
30473;DHT22;17263;48.160;11.452;2023-02-04T00:54:49;5.10;99.90
30473;DHT22;17263;48.160;11.452;2023-02-04T00:57:15;5.20;99.90
30473;DHT22;17263;48.160;11.452;2023-02-04T00:59:41;5.20;99.90
30473;DHT22;17263;48.160;11.452;2023-02-04T01:02:07;5.10;99.90
30473;DHT22;17263;48.160;11.452;2023-02-04T01:04:33;5.20;99.90
30473;DHT22;17263;48.160;11.452;2023-02-04T01:06:59;5.20;99.90
30473;DHT22;17263;48.160;11.452;2023-02-04T01:09:25;5.10;99.90
30473;DHT22;17263;48.160;11.452;2023-02-04T01:11:51;5.10;99.90
30473;DHT22;17263;48.160;11.452;2023-02-04T01:14:17;5.10;99.90
30473;DHT22;17263;48.160;11.452;2023-02-04T01:16:43;5.10;99.90
30473;DHT22;17263;48.160;11.452;2023-02-04T01:19:10;5.10;99.90
30473;DHT22;17263;48.160;11.452;2023-02-04T01:21:36;5.20;99.90
30473;DHT22;17263;48.160;11.452;2023-02-04T01:24:02;5.10;99.90
30473;DHT22;17263;48.160;11.452;2023-02-04T01:26:28;5.10;99.90
30473;DHT22;17263;48.160;11.452;2023-02-04T01:28:54;5.20;99.90
30473;DHT22;17263;48.160;11.452;2023-02-04T01:31:20;5.10;99.90
30473;DHT22;17263;48.160;11.452;2023-02-04T01:33:46;5.10;99.90
30473;DHT22;17263;48.160;11.452;2023-02-04T01:36:12;5.10;99.90
30473;DHT22;17263;48.160;11.452;2023-02-04T01:38:39;5.10;99.90
30473;DHT22;17263;48.160;11.452;2023-02-04T01:41:05;5.10;99.90
30473;DHT22;17263;48.160;11.452;2023-02-04T01:43:32;5.00;99.90
30473;DHT22;17263;48.160;11.452;2023-02-04T01:45:58;5.00;99.90
30473;DHT22;17263;48.160;11.452;2023-02-04T01:48:25;5.00;99.90
30473;DHT22;17263;48.160;11.452;2023-02-04T01:50:54;5.00;99.90
30473;DHT22;17263;48.160;11.452;2023-02-04T01:53:23;5.00;99.90
30473;DHT22;17263;48.160;11.452;2023-02-04T01:55:51;5.00;99.90
30473;DHT22;17263;48.160;11.452;2023-02-04T01:58:17;5.00;99.90
30473;DHT22;17263;48.160;11.452;2023-02-04T02:00:43;5.00;99.90
30473;DHT22;17263;48.160;11.452;2023-02-04T02:03:09;5.00;99.90
30473;DHT22;17263;48.160;11.452;2023-02-04T02:05:41;5.00;99.90
30473;DHT22;17263;48.160;11.452;2023-02-04T02:08:09;5.00;99.90
30473;DHT22;17263;48.160;11.452;2023-02-04T02:10:37;5.10;99.90
30473;DHT22;17263;48.160;11.452;2023-02-04T02:13:05;5.10;99.90
30473;DHT22;17263;48.160;11.452;2023-02-04T02:15:32;5.10;99.90
30473;DHT22;17263;48.160;11.452;2023-02-04T02:17:58;5.10;99.90
30473;DHT22;17263;48.160;11.452;2023-02-04T02:20:25;5.10;99.90
30473;DHT22;17263;48.160;11.452;2023-02-04T02:25:57;5.10;99.90
30473;DHT22;17263;48.160;11.452;2023-02-04T02:28:23;5.10;99.90
30473;DHT22;17263;48.160;11.452;2023-02-04T02:30:50;5.10;99.90
30473;DHT22;17263;48.160;11.452;2023-02-04T02:33:18;5.10;99.90
30473;DHT22;17263;48.160;11.452;2023-02-04T02:35:45;5.10;99.90
30473;DHT22;17263;48.160;11.452;2023-02-04T02:38:17;5.20;99.90
30473;DHT22;17263;48.160;11.452;2023-02-04T02:40:44;5.20;99.90
30473;DHT22;17263;48.160;11.452;2023-02-04T02:43:15;5.20;99.90
30473;DHT22;17263;48.160;11.452;2023-02-04T02:45:42;5.20;99.90
30473;DHT22;17263;48.160;11.452;2023-02-04T02:48:09;5.20;99.90
30473;DHT22;17263;48.160;11.452;2023-02-04T02:50:36;5.10;99.90
30473;DHT22;17263;48.160;11.452;2023-02-04T02:53:02;5.10;99.90
30473;DHT22;17263;48.160;11.452;2023-02-04T02:55:31;5.10;99.90
30473;DHT22;17263;48.160;11.452;2023-02-04T02:57:57;5.10;99.90
30473;DHT22;17263;48.160;11.452;2023-02-04T03:00:26;5.00;99.90
30473;DHT22;17263;48.160;11.452;2023-02-04T03:03:11;5.00;99.90
30473;DHT22;17263;48.160;11.452;2023-02-04T03:05:41;5.00;99.90
30473;DHT22;17263;48.160;11.452;2023-02-04T03:08:09;4.90;99.90
30473;DHT22;17263;48.160;11.452;2023-02-04T03:10:37;4.90;99.90
30473;DHT22;17263;48.160;11.452;2023-02-04T03:13:03;4.80;99.90
30473;DHT22;17263;48.160;11.452;2023-02-04T03:15:30;4.80;99.90
30473;DHT22;17263;48.160;11.452;2023-02-04T03:17:58;4.80;99.90
30473;DHT22;17263;48.160;11.452;2023-02-04T03:20:26;4.70;99.90
30473;DHT22;17263;48.160;11.452;2023-02-04T03:22:53;4.60;99.90
30473;DHT22;17263;48.160;11.452;2023-02-04T03:25:19;4.50;99.90
30473;DHT22;17263;48.160;11.452;2023-02-04T03:27:50;4.50;99.90
30473;DHT22;17263;48.160;11.452;2023-02-04T03:30:22;4.50;99.90
30473;DHT22;17263;48.160;11.452;2023-02-04T03:32:49;4.50;99.90
30473;DHT22;17263;48.160;11.452;2023-02-04T03:35:15;4.50;99.90
30473;DHT22;17263;48.160;11.452;2023-02-04T03:37:41;4.40;99.90
30473;DHT22;17263;48.160;11.452;2023-02-04T03:40:08;4.50;99.90
30473;DHT22;17263;48.160;11.452;2023-02-04T03:42:34;4.50;99.90
30473;DHT22;17263;48.160;11.452;2023-02-04T03:45:01;4.50;99.90
30473;DHT22;17263;48.160;11.452;2023-02-04T03:47:27;4.40;99.90
30473;DHT22;17263;48.160;11.452;2023-02-04T03:49:53;4.40;99.90
30473;DHT22;17263;48.160;11.452;2023-02-04T03:52:19;4.40;99.90
30473;DHT22;17263;48.160;11.452;2023-02-04T03:54:45;4.40;99.90
30473;DHT22;17263;48.160;11.452;2023-02-04T03:57:11;4.40;99.90
30473;DHT22;17263;48.160;11.452;2023-02-04T03:59:38;4.40;99.90
30473;DHT22;17263;48.160;11.452;2023-02-04T04:02:04;4.40;99.90
30473;DHT22;17263;48.160;11.452;2023-02-04T04:04:30;4.40;99.90
30473;DHT22;17263;48.160;11.452;2023-02-04T04:06:56;4.40;99.90
30473;DHT22;17263;48.160;11.452;2023-02-04T04:09:22;4.50;99.90
30473;DHT22;17263;48.160;11.452;2023-02-04T04:11:48;4.50;99.90
30473;DHT22;17263;48.160;11.452;2023-02-04T04:14:14;4.40;99.90
30473;DHT22;17263;48.160;11.452;2023-02-04T04:16:40;4.40;99.90
30473;DHT22;17263;48.160;11.452;2023-02-04T04:19:06;4.40;99.90
30473;DHT22;17263;48.160;11.452;2023-02-04T04:21:32;4.40;99.90
30473;DHT22;17263;48.160;11.452;2023-02-04T04:23:58;4.40;99.90
30473;DHT22;17263;48.160;11.452;2023-02-04T04:26:24;4.40;99.90
30473;DHT22;17263;48.160;11.452;2023-02-04T04:28:50;4.30;99.90
30473;DHT22;17263;48.160;11.452;2023-02-04T04:31:16;4.30;99.90
30473;DHT22;17263;48.160;11.452;2023-02-04T04:33:42;4.20;99.90
30473;DHT22;17263;48.160;11.452;2023-02-04T04:36:08;4.20;99.90
30473;DHT22;17263;48.160;11.452;2023-02-04T04:38:34;4.10;99.90
30473;DHT22;17263;48.160;11.452;2023-02-04T04:41:00;4.10;99.90
30473;DHT22;17263;48.160;11.452;2023-02-04T04:43:26;4.00;99.90
30473;DHT22;17263;48.160;11.452;2023-02-04T04:45:52;3.90;99.90
30473;DHT22;17263;48.160;11.452;2023-02-04T04:48:19;3.90;99.90
30473;DHT22;17263;48.160;11.452;2023-02-04T04:50:46;3.90;99.90
30473;DHT22;17263;48.160;11.452;2023-02-04T04:53:12;3.80;99.90
30473;DHT22;17263;48.160;11.452;2023-02-04T04:55:38;3.80;99.90
30473;DHT22;17263;48.160;11.452;2023-02-04T04:58:06;3.80;99.90
30473;DHT22;17263;48.160;11.452;2023-02-04T05:00:32;3.80;99.90
30473;DHT22;17263;48.160;11.452;2023-02-04T05:02:58;3.80;99.90
30473;DHT22;17263;48.160;11.452;2023-02-04T05:05:24;3.70;99.90
30473;DHT22;17263;48.160;11.452;2023-02-04T05:07:50;3.70;99.90
30473;DHT22;17263;48.160;11.452;2023-02-04T05:10:18;3.70;99.90
30473;DHT22;17263;48.160;11.452;2023-02-04T05:12:45;3.70;99.90
30473;DHT22;17263;48.160;11.452;2023-02-04T05:15:11;3.70;99.90
30473;DHT22;17263;48.160;11.452;2023-02-04T05:17:37;3.70;99.90
30473;DHT22;17263;48.160;11.452;2023-02-04T05:20:03;3.70;99.90
30473;DHT22;17263;48.160;11.452;2023-02-04T05:22:29;3.80;99.90
30473;DHT22;17263;48.160;11.452;2023-02-04T05:24:56;3.80;99.90
30473;DHT22;17263;48.160;11.452;2023-02-04T05:27:22;3.80;99.90
30473;DHT22;17263;48.160;11.452;2023-02-04T05:29:48;3.90;99.90
30473;DHT22;17263;48.160;11.452;2023-02-04T05:32:14;3.90;99.90
30473;DHT22;17263;48.160;11.452;2023-02-04T05:34:40;3.90;99.90
30473;DHT22;17263;48.160;11.452;2023-02-04T05:37:06;3.90;99.90
30473;DHT22;17263;48.160;11.452;2023-02-04T05:39:32;3.90;99.90
30473;DHT22;17263;48.160;11.452;2023-02-04T05:41:58;3.90;99.90
30473;DHT22;17263;48.160;11.452;2023-02-04T05:44:24;4.00;99.90
30473;DHT22;17263;48.160;11.452;2023-02-04T05:46:50;4.00;99.90
30473;DHT22;17263;48.160;11.452;2023-02-04T05:49:16;4.00;99.90
30473;DHT22;17263;48.160;11.452;2023-02-04T05:51:42;4.00;99.90
30473;DHT22;17263;48.160;11.452;2023-02-04T05:54:08;4.00;99.90
30473;DHT22;17263;48.160;11.452;2023-02-04T05:56:34;4.00;99.90
30473;DHT22;17263;48.160;11.452;2023-02-04T05:59:00;4.00;99.90
30473;DHT22;17263;48.160;11.452;2023-02-04T06:01:26;4.00;99.90
30473;DHT22;17263;48.160;11.452;2023-02-04T06:03:52;4.00;99.90
30473;DHT22;17263;48.160;11.452;2023-02-04T06:06:18;4.00;99.90
30473;DHT22;17263;48.160;11.452;2023-02-04T06:08:44;4.00;99.90
30473;DHT22;17263;48.160;11.452;2023-02-04T06:11:10;4.00;99.90
30473;DHT22;17263;48.160;11.452;2023-02-04T06:13:36;4.00;99.90
30473;DHT22;17263;48.160;11.452;2023-02-04T06:16:02;4.00;99.90
30473;DHT22;17263;48.160;11.452;2023-02-04T06:18:28;4.00;99.90
30473;DHT22;17263;48.160;11.452;2023-02-04T06:20:54;4.00;99.90
30473;DHT22;17263;48.160;11.452;2023-02-04T06:23:20;4.00;99.90
30473;DHT22;17263;48.160;11.452;2023-02-04T06:25:46;4.00;99.90
30473;DHT22;17263;48.160;11.452;2023-02-04T06:28:14;4.00;99.90
30473;DHT22;17263;48.160;11.452;2023-02-04T06:30:40;4.00;99.90
30473;DHT22;17263;48.160;11.452;2023-02-04T06:33:06;4.00;99.90
30473;DHT22;17263;48.160;11.452;2023-02-04T06:35:32;4.00;99.90
30473;DHT22;17263;48.160;11.452;2023-02-04T06:37:58;4.00;99.90
30473;DHT22;17263;48.160;11.452;2023-02-04T06:40:24;4.00;99.90
30473;DHT22;17263;48.160;11.452;2023-02-04T06:42:50;4.00;99.90
30473;DHT22;17263;48.160;11.452;2023-02-04T06:45:16;3.90;99.90
30473;DHT22;17263;48.160;11.452;2023-02-04T06:47:42;4.00;99.90
30473;DHT22;17263;48.160;11.452;2023-02-04T06:50:09;3.90;99.90
30473;DHT22;17263;48.160;11.452;2023-02-04T06:52:35;3.90;99.90
30473;DHT22;17263;48.160;11.452;2023-02-04T06:55:01;3.90;99.90
30473;DHT22;17263;48.160;11.452;2023-02-04T06:57:27;3.90;99.90
30473;DHT22;17263;48.160;11.452;2023-02-04T06:59:53;3.80;99.90
30473;DHT22;17263;48.160;11.452;2023-02-04T07:02:19;3.80;99.90
30473;DHT22;17263;48.160;11.452;2023-02-04T07:04:45;3.90;99.90
30473;DHT22;17263;48.160;11.452;2023-02-04T07:07:11;3.90;99.90
30473;DHT22;17263;48.160;11.452;2023-02-04T07:09:37;3.90;99.90
30473;DHT22;17263;48.160;11.452;2023-02-04T07:12:05;4.00;99.90
30473;DHT22;17263;48.160;11.452;2023-02-04T07:14:31;4.00;99.90
30473;DHT22;17263;48.160;11.452;2023-02-04T07:16:57;4.00;99.90
30473;DHT22;17263;48.160;11.452;2023-02-04T07:19:23;4.00;99.90
30473;DHT22;17263;48.160;11.452;2023-02-04T07:21:50;4.10;99.90
30473;DHT22;17263;48.160;11.452;2023-02-04T07:24:19;4.00;99.90
30473;DHT22;17263;48.160;11.452;2023-02-04T07:26:45;4.10;99.90
30473;DHT22;17263;48.160;11.452;2023-02-04T07:29:11;4.10;99.90
30473;DHT22;17263;48.160;11.452;2023-02-04T07:31:37;4.10;99.90
30473;DHT22;17263;48.160;11.452;2023-02-04T07:34:03;4.10;99.90
30473;DHT22;17263;48.160;11.452;2023-02-04T07:36:29;4.10;99.90
30473;DHT22;17263;48.160;11.452;2023-02-04T07:38:55;4.20;99.90
30473;DHT22;17263;48.160;11.452;2023-02-04T07:41:21;4.20;99.90
30473;DHT22;17263;48.160;11.452;2023-02-04T07:43:47;4.20;99.90
30473;DHT22;17263;48.160;11.452;2023-02-04T07:46:13;4.20;99.90
30473;DHT22;17263;48.160;11.452;2023-02-04T07:48:39;4.20;99.90
30473;DHT22;17263;48.160;11.452;2023-02-04T07:51:05;4.20;99.90
30473;DHT22;17263;48.160;11.452;2023-02-04T07:53:31;4.30;99.90
30473;DHT22;17263;48.160;11.452;2023-02-04T07:55:57;4.30;99.90
30473;DHT22;17263;48.160;11.452;2023-02-04T07:58:23;4.40;99.90
30473;DHT22;17263;48.160;11.452;2023-02-04T08:00:49;4.30;99.90
30473;DHT22;17263;48.160;11.452;2023-02-04T08:03:15;4.40;99.90
30473;DHT22;17263;48.160;11.452;2023-02-04T08:05:42;4.40;99.90
30473;DHT22;17263;48.160;11.452;2023-02-04T08:08:08;4.40;99.90
30473;DHT22;17263;48.160;11.452;2023-02-04T08:10:34;4.40;99.90
30473;DHT22;17263;48.160;11.452;2023-02-04T08:13:00;4.50;99.90
30473;DHT22;17263;48.160;11.452;2023-02-04T08:15:26;4.50;99.90
30473;DHT22;17263;48.160;11.452;2023-02-04T08:17:52;4.50;99.90
30473;DHT22;17263;48.160;11.452;2023-02-04T08:20:18;4.50;99.90
30473;DHT22;17263;48.160;11.452;2023-02-04T08:22:44;4.60;99.90
30473;DHT22;17263;48.160;11.452;2023-02-04T08:25:11;4.60;99.90
30473;DHT22;17263;48.160;11.452;2023-02-04T08:27:37;4.70;99.90
30473;DHT22;17263;48.160;11.452;2023-02-04T08:30:04;4.70;99.90
30473;DHT22;17263;48.160;11.452;2023-02-04T08:32:30;4.70;99.90
30473;DHT22;17263;48.160;11.452;2023-02-04T08:34:57;4.80;99.90
30473;DHT22;17263;48.160;11.452;2023-02-04T08:37:23;4.90;99.90
30473;DHT22;17263;48.160;11.452;2023-02-04T08:39:49;5.00;99.90
30473;DHT22;17263;48.160;11.452;2023-02-04T08:42:15;5.00;99.90
30473;DHT22;17263;48.160;11.452;2023-02-04T08:44:42;5.10;99.90
30473;DHT22;17263;48.160;11.452;2023-02-04T08:47:08;5.10;99.90
30473;DHT22;17263;48.160;11.452;2023-02-04T08:49:35;5.20;99.90
30473;DHT22;17263;48.160;11.452;2023-02-04T08:52:02;5.30;99.90
30473;DHT22;17263;48.160;11.452;2023-02-04T08:54:29;5.40;99.90
30473;DHT22;17263;48.160;11.452;2023-02-04T08:56:55;5.50;99.90
30473;DHT22;17263;48.160;11.452;2023-02-04T08:59:21;5.70;99.90
30473;DHT22;17263;48.160;11.452;2023-02-04T09:01:49;5.80;99.90
30473;DHT22;17263;48.160;11.452;2023-02-04T09:04:21;5.80;99.90
30473;DHT22;17263;48.160;11.452;2023-02-04T09:06:48;5.80;99.90
30473;DHT22;17263;48.160;11.452;2023-02-04T09:09:14;5.80;99.90
30473;DHT22;17263;48.160;11.452;2023-02-04T09:11:40;5.80;99.90
30473;DHT22;17263;48.160;11.452;2023-02-04T09:14:07;5.90;99.90
30473;DHT22;17263;48.160;11.452;2023-02-04T09:16:33;5.90;99.90
30473;DHT22;17263;48.160;11.452;2023-02-04T09:18:59;5.90;99.90
30473;DHT22;17263;48.160;11.452;2023-02-04T09:21:27;5.80;99.90
30473;DHT22;17263;48.160;11.452;2023-02-04T09:23:54;5.90;99.90
30473;DHT22;17263;48.160;11.452;2023-02-04T09:26:20;6.00;99.90
30473;DHT22;17263;48.160;11.452;2023-02-04T09:28:46;6.00;99.90
30473;DHT22;17263;48.160;11.452;2023-02-04T09:31:14;6.10;99.90
30473;DHT22;17263;48.160;11.452;2023-02-04T09:33:40;6.10;99.90
30473;DHT22;17263;48.160;11.452;2023-02-04T09:36:06;6.00;99.90
30473;DHT22;17263;48.160;11.452;2023-02-04T09:38:33;5.90;99.90
30473;DHT22;17263;48.160;11.452;2023-02-04T09:41:02;5.90;99.90
30473;DHT22;17263;48.160;11.452;2023-02-04T09:43:30;6.00;99.90
30473;DHT22;17263;48.160;11.452;2023-02-04T09:45:59;6.00;99.90
30473;DHT22;17263;48.160;11.452;2023-02-04T09:48:25;6.10;99.90
30473;DHT22;17263;48.160;11.452;2023-02-04T09:50:52;6.00;99.90
30473;DHT22;17263;48.160;11.452;2023-02-04T09:53:23;6.10;99.90
30473;DHT22;17263;48.160;11.452;2023-02-04T09:55:51;6.10;99.90
30473;DHT22;17263;48.160;11.452;2023-02-04T09:58:19;6.10;99.90
30473;DHT22;17263;48.160;11.452;2023-02-04T10:00:47;6.10;99.90
30473;DHT22;17263;48.160;11.452;2023-02-04T10:03:18;6.10;99.90
30473;DHT22;17263;48.160;11.452;2023-02-04T10:05:47;6.10;99.90
30473;DHT22;17263;48.160;11.452;2023-02-04T10:08:27;6.10;99.90
30473;DHT22;17263;48.160;11.452;2023-02-04T10:10:54;6.10;99.90
30473;DHT22;17263;48.160;11.452;2023-02-04T10:13:29;6.10;99.90
30473;DHT22;17263;48.160;11.452;2023-02-04T10:15:56;6.10;99.90
30473;DHT22;17263;48.160;11.452;2023-02-04T10:18:27;6.10;99.90
30473;DHT22;17263;48.160;11.452;2023-02-04T10:21:05;6.10;99.90
30473;DHT22;17263;48.160;11.452;2023-02-04T10:23:31;6.10;99.90
30473;DHT22;17263;48.160;11.452;2023-02-04T10:25:57;6.10;99.90
30473;DHT22;17263;48.160;11.452;2023-02-04T10:28:32;6.20;99.90
30473;DHT22;17263;48.160;11.452;2023-02-04T10:30:59;6.20;99.90
30473;DHT22;17263;48.160;11.452;2023-02-04T10:33:25;6.20;99.90
30473;DHT22;17263;48.160;11.452;2023-02-04T10:35:53;6.20;99.90
30473;DHT22;17263;48.160;11.452;2023-02-04T10:38:20;6.20;99.90
30473;DHT22;17263;48.160;11.452;2023-02-04T10:40:47;6.20;99.90
30473;DHT22;17263;48.160;11.452;2023-02-04T10:43:20;6.20;99.90
30473;DHT22;17263;48.160;11.452;2023-02-04T10:45:58;6.10;99.90
30473;DHT22;17263;48.160;11.452;2023-02-04T10:48:26;6.00;99.90
30473;DHT22;17263;48.160;11.452;2023-02-04T10:50:53;5.90;99.90
30473;DHT22;17263;48.160;11.452;2023-02-04T10:53:21;5.90;99.90
30473;DHT22;17263;48.160;11.452;2023-02-04T10:58:40;5.90;99.90
30473;DHT22;17263;48.160;11.452;2023-02-04T11:01:10;6.00;99.90
30473;DHT22;17263;48.160;11.452;2023-02-04T11:03:38;6.10;99.90
30473;DHT22;17263;48.160;11.452;2023-02-04T11:06:10;6.10;99.90
30473;DHT22;17263;48.160;11.452;2023-02-04T11:08:37;6.10;99.90
30473;DHT22;17263;48.160;11.452;2023-02-04T11:11:15;6.00;99.90
30473;DHT22;17263;48.160;11.452;2023-02-04T11:18:47;5.70;99.90
30473;DHT22;17263;48.160;11.452;2023-02-04T11:26:44;5.40;99.90
30473;DHT22;17263;48.160;11.452;2023-02-04T11:29:49;5.40;99.90
30473;DHT22;17263;48.160;11.452;2023-02-04T11:32:36;5.50;99.90
30473;DHT22;17263;48.160;11.452;2023-02-04T11:37:40;5.40;99.90
30473;DHT22;17263;48.160;11.452;2023-02-04T11:43:23;5.60;99.90
30473;DHT22;17263;48.160;11.452;2023-02-04T11:46:19;5.70;99.90
30473;DHT22;17263;48.160;11.452;2023-02-04T11:48:45;5.80;99.90
30473;DHT22;17263;48.160;11.452;2023-02-04T11:51:15;5.80;99.90
30473;DHT22;17263;48.160;11.452;2023-02-04T11:53:42;5.70;99.90
30473;DHT22;17263;48.160;11.452;2023-02-04T11:56:21;5.60;99.90
30473;DHT22;17263;48.160;11.452;2023-02-04T11:58:49;5.60;99.90
30473;DHT22;17263;48.160;11.452;2023-02-04T12:01:19;5.60;99.90
30473;DHT22;17263;48.160;11.452;2023-02-04T12:03:48;5.50;99.90
30473;DHT22;17263;48.160;11.452;2023-02-04T12:06:31;5.40;99.90
30473;DHT22;17263;48.160;11.452;2023-02-04T12:11:30;5.20;99.90
30473;DHT22;17263;48.160;11.452;2023-02-04T12:14:05;5.20;99.90
30473;DHT22;17263;48.160;11.452;2023-02-04T12:16:48;5.20;99.90
30473;DHT22;17263;48.160;11.452;2023-02-04T12:19:16;5.30;99.90
30473;DHT22;17263;48.160;11.452;2023-02-04T12:21:42;5.40;99.90
30473;DHT22;17263;48.160;11.452;2023-02-04T12:24:08;5.40;99.90
30473;DHT22;17263;48.160;11.452;2023-02-04T12:26:35;5.50;99.90
30473;DHT22;17263;48.160;11.452;2023-02-04T12:29:01;5.50;99.90
30473;DHT22;17263;48.160;11.452;2023-02-04T12:31:28;5.60;99.90
30473;DHT22;17263;48.160;11.452;2023-02-04T12:33:55;5.60;99.90
30473;DHT22;17263;48.160;11.452;2023-02-04T12:36:22;5.60;99.90
30473;DHT22;17263;48.160;11.452;2023-02-04T12:38:48;5.50;99.90
30473;DHT22;17263;48.160;11.452;2023-02-04T12:41:14;5.40;99.90
30473;DHT22;17263;48.160;11.452;2023-02-04T12:43:40;5.40;99.90
30473;DHT22;17263;48.160;11.452;2023-02-04T12:46:06;5.40;99.90
30473;DHT22;17263;48.160;11.452;2023-02-04T12:48:32;5.30;99.90
30473;DHT22;17263;48.160;11.452;2023-02-04T12:50:58;5.40;99.90
30473;DHT22;17263;48.160;11.452;2023-02-04T12:53:24;5.40;99.90
30473;DHT22;17263;48.160;11.452;2023-02-04T12:55:50;5.50;99.90
30473;DHT22;17263;48.160;11.452;2023-02-04T12:58:16;5.50;99.90
30473;DHT22;17263;48.160;11.452;2023-02-04T13:00:42;5.60;99.90
30473;DHT22;17263;48.160;11.452;2023-02-04T13:03:09;5.60;99.90
30473;DHT22;17263;48.160;11.452;2023-02-04T13:05:35;5.80;99.90
30473;DHT22;17263;48.160;11.452;2023-02-04T13:08:01;5.90;99.90
30473;DHT22;17263;48.160;11.452;2023-02-04T13:10:27;5.90;99.90
30473;DHT22;17263;48.160;11.452;2023-02-04T13:12:53;5.90;99.90
30473;DHT22;17263;48.160;11.452;2023-02-04T13:15:19;5.80;99.90
30473;DHT22;17263;48.160;11.452;2023-02-04T13:17:45;5.90;99.90
30473;DHT22;17263;48.160;11.452;2023-02-04T13:20:11;5.90;99.90
30473;DHT22;17263;48.160;11.452;2023-02-04T13:22:38;5.80;99.90
30473;DHT22;17263;48.160;11.452;2023-02-04T13:25:04;5.70;99.90
30473;DHT22;17263;48.160;11.452;2023-02-04T13:27:31;5.60;99.90
30473;DHT22;17263;48.160;11.452;2023-02-04T13:29:57;5.70;99.90
30473;DHT22;17263;48.160;11.452;2023-02-04T13:32:23;5.60;99.90
30473;DHT22;17263;48.160;11.452;2023-02-04T13:34:49;5.50;99.90
30473;DHT22;17263;48.160;11.452;2023-02-04T13:37:15;5.40;99.90
30473;DHT22;17263;48.160;11.452;2023-02-04T13:39:41;5.40;99.90
30473;DHT22;17263;48.160;11.452;2023-02-04T13:42:07;5.30;99.90
30473;DHT22;17263;48.160;11.452;2023-02-04T13:44:33;5.30;99.90
30473;DHT22;17263;48.160;11.452;2023-02-04T13:46:59;5.10;99.90
30473;DHT22;17263;48.160;11.452;2023-02-04T13:49:25;5.00;99.90
30473;DHT22;17263;48.160;11.452;2023-02-04T13:51:51;4.80;99.90
30473;DHT22;17263;48.160;11.452;2023-02-04T13:54:17;4.80;99.90
30473;DHT22;17263;48.160;11.452;2023-02-04T13:56:43;4.80;99.90
30473;DHT22;17263;48.160;11.452;2023-02-04T13:59:09;4.70;99.90
30473;DHT22;17263;48.160;11.452;2023-02-04T14:01:36;4.80;99.90
30473;DHT22;17263;48.160;11.452;2023-02-04T14:04:02;5.00;99.90
30473;DHT22;17263;48.160;11.452;2023-02-04T14:06:28;5.00;99.90
30473;DHT22;17263;48.160;11.452;2023-02-04T14:08:59;5.20;99.90
30473;DHT22;17263;48.160;11.452;2023-02-04T14:11:26;5.30;99.90
30473;DHT22;17263;48.160;11.452;2023-02-04T14:13:52;5.30;99.90
30473;DHT22;17263;48.160;11.452;2023-02-04T14:16:18;5.30;99.90
30473;DHT22;17263;48.160;11.452;2023-02-04T14:18:44;5.30;99.90
30473;DHT22;17263;48.160;11.452;2023-02-04T14:21:10;5.30;99.90
30473;DHT22;17263;48.160;11.452;2023-02-04T14:23:36;5.30;99.90
30473;DHT22;17263;48.160;11.452;2023-02-04T14:26:02;5.20;99.90
30473;DHT22;17263;48.160;11.452;2023-02-04T14:28:31;5.20;99.90
30473;DHT22;17263;48.160;11.452;2023-02-04T14:30:57;5.20;99.90
30473;DHT22;17263;48.160;11.452;2023-02-04T14:33:23;5.20;99.90
30473;DHT22;17263;48.160;11.452;2023-02-04T14:35:52;5.10;99.90
30473;DHT22;17263;48.160;11.452;2023-02-04T14:38:18;5.20;99.90
30473;DHT22;17263;48.160;11.452;2023-02-04T14:40:44;5.20;99.90
30473;DHT22;17263;48.160;11.452;2023-02-04T14:43:12;5.10;99.90
30473;DHT22;17263;48.160;11.452;2023-02-04T14:45:39;5.10;99.90
30473;DHT22;17263;48.160;11.452;2023-02-04T14:48:06;5.00;99.90
30473;DHT22;17263;48.160;11.452;2023-02-04T14:50:33;5.00;99.90
30473;DHT22;17263;48.160;11.452;2023-02-04T14:52:59;5.00;99.90
30473;DHT22;17263;48.160;11.452;2023-02-04T14:55:25;5.00;99.90
30473;DHT22;17263;48.160;11.452;2023-02-04T14:57:52;4.90;99.90
30473;DHT22;17263;48.160;11.452;2023-02-04T15:00:19;5.00;99.90
30473;DHT22;17263;48.160;11.452;2023-02-04T15:02:45;4.90;99.90
30473;DHT22;17263;48.160;11.452;2023-02-04T15:05:12;4.80;99.90
30473;DHT22;17263;48.160;11.452;2023-02-04T15:07:40;4.80;99.90
30473;DHT22;17263;48.160;11.452;2023-02-04T15:10:07;4.80;99.90
30473;DHT22;17263;48.160;11.452;2023-02-04T15:12:34;4.80;99.90
30473;DHT22;17263;48.160;11.452;2023-02-04T15:15:00;4.70;99.90
30473;DHT22;17263;48.160;11.452;2023-02-04T15:17:26;4.80;99.90
30473;DHT22;17263;48.160;11.452;2023-02-04T15:19:52;4.70;99.90
30473;DHT22;17263;48.160;11.452;2023-02-04T15:22:18;4.70;99.90
30473;DHT22;17263;48.160;11.452;2023-02-04T15:24:45;4.60;99.90
30473;DHT22;17263;48.160;11.452;2023-02-04T15:27:12;4.60;99.90
30473;DHT22;17263;48.160;11.452;2023-02-04T15:29:38;4.60;99.90
30473;DHT22;17263;48.160;11.452;2023-02-04T15:32:04;4.60;99.90
30473;DHT22;17263;48.160;11.452;2023-02-04T15:34:30;4.60;99.90
30473;DHT22;17263;48.160;11.452;2023-02-04T15:36:56;4.60;99.90
30473;DHT22;17263;48.160;11.452;2023-02-04T15:39:22;4.70;99.90
30473;DHT22;17263;48.160;11.452;2023-02-04T15:41:48;4.60;99.90
30473;DHT22;17263;48.160;11.452;2023-02-04T15:44:14;4.60;99.90
30473;DHT22;17263;48.160;11.452;2023-02-04T15:46:40;4.70;99.90
30473;DHT22;17263;48.160;11.452;2023-02-04T15:49:06;4.60;99.90
30473;DHT22;17263;48.160;11.452;2023-02-04T15:51:33;4.50;99.90
30473;DHT22;17263;48.160;11.452;2023-02-04T15:53:59;4.40;99.90